createdAt,value
2023-03-18T00:00:12.365Z,101154.03
2023-03-18T00:03:00.798Z,101155.00
2023-03-18T00:05:31.242Z,101167.34
2023-03-18T00:07:59.565Z,101168.28
2023-03-18T00:10:28.303Z,101165.63
2023-03-18T00:12:56.566Z,101164.88
2023-03-18T00:15:25.387Z,101158.72
2023-03-18T00:17:54.735Z,101164.03
2023-03-18T00:20:38.644Z,101162.34
2023-03-18T00:23:08.781Z,101157.84
2023-03-18T00:25:38.001Z,101157.03
2023-03-18T00:28:07.230Z,101155.44
2023-03-18T00:30:39.054Z,101155.44
2023-03-18T00:33:07.550Z,101151.06
2023-03-18T00:35:36.625Z,101151.81
2023-03-18T00:38:07.689Z,101149.41
2023-03-18T00:40:53.837Z,101148.41
2023-03-18T00:43:29.601Z,101153.00
2023-03-18T00:45:58.455Z,101150.34
2023-03-18T00:48:27.005Z,101148.56
2023-03-18T00:50:56.167Z,101143.25
2023-03-18T00:53:26.320Z,101139.72
2023-03-18T00:55:55.534Z,101137.06
2023-03-18T00:58:24.778Z,101129.22
2023-03-18T01:00:53.851Z,101135.47
2023-03-18T01:03:26.056Z,101134.66
2023-03-18T01:05:54.573Z,101125.81
2023-03-18T01:08:23.177Z,101125.81
2023-03-18T01:10:54.309Z,101124.13
2023-03-18T01:13:24.126Z,101122.31
2023-03-18T01:15:52.867Z,101124.03
2023-03-18T01:18:21.236Z,101119.66
2023-03-18T01:20:50.417Z,101106.47
2023-03-18T01:23:21.477Z,101113.50
2023-03-18T01:25:51.257Z,101115.31
2023-03-18T01:28:22.951Z,101101.31
2023-03-18T01:30:51.852Z,101110.09
2023-03-18T01:33:22.426Z,101096.00
2023-03-18T01:35:56.219Z,101088.03
2023-03-18T01:38:31.534Z,101089.94
2023-03-18T01:41:08.999Z,101088.97
2023-03-18T01:43:41.022Z,101083.75
2023-03-18T01:46:38.778Z,101084.63
2023-03-18T01:49:29.112Z,101081.25
2023-03-18T01:52:18.334Z,101077.72
2023-03-18T01:55:21.312Z,101080.38
2023-03-18T01:57:50.207Z,101082.19
2023-03-18T02:00:20.157Z,101071.56
2023-03-18T02:02:50.023Z,101070.84
2023-03-18T02:05:22.283Z,101076.13
2023-03-18T02:07:51.851Z,101070.09
2023-03-18T02:10:31.513Z,101058.50
2023-03-18T02:13:07.828Z,101056.81
2023-03-18T02:16:01.745Z,101058.75
2023-03-18T02:18:42.348Z,101054.16
2023-03-18T02:21:44.063Z,101057.75
2023-03-18T02:24:47.678Z,101051.72
2023-03-18T02:27:30.779Z,101052.69
2023-03-18T02:30:11.544Z,101046.41
2023-03-18T02:32:40.934Z,101046.41
2023-03-18T02:35:11.187Z,101048.22
2023-03-18T02:37:40.995Z,101036.88
2023-03-18T02:40:31.098Z,101037.72
2023-03-18T02:43:28.629Z,101041.34
2023-03-18T02:46:41.073Z,101039.63
2023-03-18T02:49:10.804Z,101045.81
2023-03-18T02:51:39.821Z,101042.28
2023-03-18T02:54:16.120Z,101036.13
2023-03-18T02:56:44.848Z,101038.91
2023-03-18T02:59:13.394Z,101037.94
2023-03-18T03:01:43.296Z,101038.91
2023-03-18T03:04:12.489Z,101036.25
2023-03-18T03:06:41.513Z,101032.63
2023-03-18T03:09:11.231Z,101034.56
2023-03-18T03:11:39.877Z,101033.69
2023-03-18T03:14:15.782Z,101027.53
2023-03-18T03:16:47.511Z,101039.97
2023-03-18T03:19:17.990Z,101027.66
2023-03-18T03:21:46.530Z,101025.97
2023-03-18T03:24:16.539Z,101023.53
2023-03-18T03:26:45.086Z,101026.19
2023-03-18T03:29:13.469Z,101029.72
2023-03-18T03:31:43.182Z,101031.59
2023-03-18T03:34:12.331Z,101028.94
2023-03-18T03:36:40.973Z,101028.00
2023-03-18T03:39:09.313Z,101028.94
2023-03-18T03:41:38.066Z,101018.66
2023-03-18T03:44:06.427Z,101022.06
2023-03-18T03:46:35.049Z,101023.88
2023-03-18T03:49:03.986Z,101021.31
2023-03-18T03:51:32.657Z,101021.31
2023-03-18T03:54:01.109Z,101024.81
2023-03-18T03:56:31.867Z,101026.53
2023-03-18T03:59:00.544Z,101018.66
2023-03-18T04:01:47.060Z,101018.78
2023-03-18T04:04:15.704Z,101021.44
2023-03-18T04:06:44.956Z,101018.91
2023-03-18T04:09:13.538Z,101024.22
2023-03-18T04:11:43.182Z,101023.34
2023-03-18T04:14:11.486Z,101022.41
2023-03-18T04:16:40.777Z,101022.50
2023-03-18T04:19:11.185Z,101023.34
2023-03-18T04:21:39.794Z,101016.56
2023-03-18T04:24:08.661Z,101024.31
2023-03-18T04:26:37.245Z,101023.59
2023-03-18T04:29:06.984Z,101021.03
2023-03-18T04:31:35.891Z,101021.78
2023-03-18T04:34:04.566Z,101024.53
2023-03-18T04:36:33.464Z,101023.91
2023-03-18T04:39:02.937Z,101014.16
2023-03-18T04:41:31.546Z,101019.22
2023-03-18T04:44:03.954Z,101014.88
2023-03-18T04:46:41.648Z,101006.19
2023-03-18T04:49:10.748Z,101008.09
2023-03-18T04:51:40.033Z,101015.94
2023-03-18T04:54:16.902Z,101016.91
2023-03-18T04:56:47.153Z,101025.72
2023-03-18T04:59:15.783Z,101020.50
2023-03-18T05:01:44.730Z,101012.66
2023-03-18T05:04:14.035Z,101024.03
2023-03-18T05:06:48.736Z,101023.91
2023-03-18T05:09:19.044Z,101022.84
2023-03-18T05:11:47.894Z,101022.72
2023-03-18T05:14:29.247Z,101021.66
2023-03-18T05:16:58.843Z,101019.75
2023-03-18T05:19:28.990Z,101023.88
2023-03-18T05:22:09.237Z,101025.44
2023-03-18T05:24:38.733Z,101031.16
2023-03-18T05:27:08.029Z,101032.41
2023-03-18T05:29:42.203Z,101036.81
2023-03-18T05:32:33.985Z,101040.50
2023-03-18T05:35:06.402Z,101042.59
2023-03-18T05:37:44.627Z,101033.94
2023-03-18T05:40:14.906Z,101043.13
2023-03-18T05:42:56.113Z,101035.34
2023-03-18T05:45:36.822Z,101030.63
2023-03-18T05:48:09.253Z,101037.81
2023-03-18T05:50:49.744Z,101039.84
2023-03-18T05:53:22.341Z,101046.50
2023-03-18T05:55:56.677Z,101048.72
2023-03-18T05:58:31.351Z,101047.28
2023-03-18T06:01:15.031Z,101046.06
2023-03-18T06:03:43.789Z,101046.19
2023-03-18T06:06:12.727Z,101039.56
2023-03-18T06:08:41.927Z,101041.50
2023-03-18T06:11:11.542Z,101043.44
2023-03-18T06:13:40.405Z,101042.34
2023-03-18T06:16:09.020Z,101047.06
2023-03-18T06:18:39.167Z,101044.03
2023-03-18T06:21:09.973Z,101049.72
2023-03-18T06:23:39.733Z,101044.91
2023-03-18T06:26:08.949Z,101052.16
2023-03-18T06:28:46.389Z,101054.31
2023-03-18T06:31:17.277Z,101061.56
2023-03-18T06:33:46.665Z,101064.22
2023-03-18T06:36:17.984Z,101059.41
2023-03-18T06:38:50.092Z,101050.81
2023-03-18T06:41:19.940Z,101063.38
2023-03-18T06:44:13.563Z,101065.31
2023-03-18T06:46:43.963Z,101062.66
2023-03-18T06:49:15.995Z,101063.50
2023-03-18T06:51:51.571Z,101072.94
2023-03-18T06:54:21.337Z,101069.53
2023-03-18T06:56:50.573Z,101061.53
2023-03-18T06:59:23.377Z,101069.53
2023-03-18T07:01:52.819Z,101066.13
2023-03-18T07:04:24.244Z,101072.78
2023-03-18T07:06:54.613Z,101080.66
2023-03-18T07:09:25.013Z,101073.91
2023-03-18T07:11:56.923Z,101086.22
2023-03-18T07:14:28.719Z,101089.50
2023-03-18T07:16:57.724Z,101083.47
2023-03-18T07:19:26.493Z,101086.22
2023-03-18T07:21:55.857Z,101080.06
2023-03-18T07:24:24.659Z,101083.81
2023-03-18T07:26:53.746Z,101087.69
2023-03-18T07:29:22.622Z,101092.03
2023-03-18T07:31:51.429Z,101097.13
2023-03-18T07:34:21.615Z,101089.88
2023-03-18T07:36:49.996Z,101092.53
2023-03-18T07:39:18.725Z,101097.59
2023-03-18T07:41:47.193Z,101100.16
2023-03-18T07:44:22.976Z,101099.19
2023-03-18T07:46:51.704Z,101108.00
2023-03-18T07:49:20.809Z,101104.63
2023-03-18T07:51:49.149Z,101106.44
2023-03-18T07:54:18.211Z,101117.19
2023-03-18T07:56:46.851Z,101120.81
2023-03-18T07:59:18.519Z,101113.09
2023-03-18T08:01:47.710Z,101116.78
2023-03-18T08:04:16.681Z,101115.63
2023-03-18T08:06:45.192Z,101126.78
2023-03-18T08:09:14.115Z,101123.53
2023-03-18T08:11:43.482Z,101125.50
2023-03-18T08:14:12.458Z,101123.41
2023-03-18T08:16:40.969Z,101126.13
2023-03-18T08:19:09.638Z,101130.41
2023-03-18T08:21:38.245Z,101134.41
2023-03-18T08:24:09.753Z,101118.75
2023-03-18T08:26:38.129Z,101122.97
2023-03-18T08:29:07.051Z,101125.63
2023-03-18T08:31:35.475Z,101120.81
2023-03-18T08:34:04.131Z,101133.13
2023-03-18T08:36:32.420Z,101138.34
2023-03-18T08:39:01.060Z,101130.47
2023-03-18T08:41:29.337Z,101135.78
2023-03-18T08:43:59.372Z,101137.72
2023-03-18T08:46:27.666Z,101133.25
2023-03-18T08:48:57.088Z,101133.34
2023-03-18T08:51:25.800Z,101133.25
2023-03-18T08:53:54.872Z,101128.78
2023-03-18T08:56:23.263Z,101124.53
2023-03-18T08:58:52.029Z,101127.56
2023-03-18T09:01:22.529Z,101124.06
2023-03-18T09:03:52.033Z,101126.81
2023-03-18T09:06:21.452Z,101119.69
2023-03-18T09:08:50.492Z,101131.78
2023-03-18T09:11:18.881Z,101130.84
2023-03-18T09:13:47.664Z,101135.28
2023-03-18T09:16:16.220Z,101125.63
2023-03-18T09:18:47.082Z,101133.34
2023-03-18T09:21:17.403Z,101132.25
2023-03-18T09:23:46.172Z,101133.97
2023-03-18T09:26:14.971Z,101132.25
2023-03-18T09:28:43.612Z,101131.41
2023-03-18T09:31:13.400Z,101128.50
2023-03-18T09:33:43.499Z,101129.25
2023-03-18T09:36:11.894Z,101118.84
2023-03-18T09:38:41.608Z,101119.78
2023-03-18T09:42:00.328Z,101124.91
2023-03-18T09:44:36.308Z,101129.09
2023-03-18T09:47:46.515Z,101135.63
2023-03-18T09:50:38.361Z,101126.22
2023-03-18T09:53:46.066Z,101121.00
2023-03-18T09:56:24.808Z,101122.09
2023-03-18T09:59:17.549Z,101124.03
2023-03-18T10:01:48.726Z,101134.03
2023-03-18T10:04:39.030Z,101125.63
2023-03-18T10:07:17.956Z,101118.31
2023-03-18T10:09:50.758Z,101120.50
2023-03-18T10:12:22.330Z,101120.75
2023-03-18T10:15:18.570Z,101123.66
2023-03-18T10:18:19.440Z,101117.72
2023-03-18T10:21:19.960Z,101121.34
2023-03-18T10:24:53.558Z,101127.78
2023-03-18T10:27:31.739Z,101118.63
2023-03-18T10:30:30.440Z,101115.94
2023-03-18T10:33:36.710Z,101107.59
2023-03-18T10:36:48.630Z,101102.97
2023-03-18T10:39:19.672Z,101103.16
2023-03-18T10:41:50.318Z,101107.66
2023-03-18T10:44:19.795Z,101114.69
2023-03-18T10:46:48.484Z,101106.53
2023-03-18T10:49:24.074Z,101112.00
2023-03-18T10:52:15.983Z,101106.75
2023-03-18T10:54:52.764Z,101102.88
2023-03-18T10:57:22.147Z,101105.31
2023-03-18T10:59:52.288Z,101109.94
2023-03-18T11:02:34.822Z,101103.44
2023-03-18T11:05:24.058Z,101103.25
2023-03-18T11:08:01.811Z,101103.69
2023-03-18T11:10:40.604Z,101105.19
2023-03-18T11:13:20.726Z,101107.28
2023-03-18T11:15:53.315Z,101103.44
2023-03-18T11:18:24.796Z,101104.06
2023-03-18T11:21:03.736Z,101102.84
2023-03-18T11:24:08.983Z,101095.34
2023-03-18T11:26:56.168Z,101099.03
2023-03-18T11:29:33.392Z,101097.53
2023-03-18T11:32:02.203Z,101097.94
2023-03-18T11:34:33.503Z,101092.31
2023-03-18T11:37:06.673Z,101093.78
2023-03-18T11:39:37.744Z,101093.22
2023-03-18T11:42:22.167Z,101089.13
2023-03-18T11:44:54.745Z,101086.94
2023-03-18T11:47:28.233Z,101077.50
2023-03-18T11:49:57.644Z,101079.94
2023-03-18T11:53:00.989Z,101073.94
2023-03-18T11:55:38.728Z,101072.19
2023-03-18T11:58:46.910Z,101070.50
2023-03-18T12:01:27.279Z,101059.41
2023-03-18T12:04:25.827Z,101065.00
2023-03-18T12:07:20.779Z,101052.38
2023-03-18T12:10:26.444Z,101055.66
2023-03-18T12:13:13.922Z,101051.38
2023-03-18T12:16:11.139Z,101047.88
2023-03-18T12:18:45.518Z,101038.97
2023-03-18T12:21:35.179Z,101037.78
2023-03-18T12:24:28.412Z,101026.16
2023-03-18T12:27:54.282Z,101030.00
2023-03-18T12:30:55.923Z,101020.97
2023-03-18T12:33:59.483Z,101024.13
2023-03-18T12:36:37.305Z,101021.84
2023-03-18T12:39:36.842Z,101018.31
2023-03-18T12:42:14.735Z,101010.75
2023-03-18T12:45:02.312Z,101002.19
2023-03-18T12:47:41.663Z,101004.72
2023-03-18T12:50:25.681Z,101005.81
2023-03-18T12:53:01.103Z,100993.25
2023-03-18T12:55:35.016Z,100992.09
2023-03-18T12:58:18.784Z,100998.63
2023-03-18T13:01:10.800Z,100991.59
2023-03-18T13:03:41.805Z,100990.19
2023-03-18T13:06:31.978Z,100989.72
2023-03-18T13:09:27.061Z,100987.28
2023-03-18T13:12:14.739Z,100987.69
2023-03-18T13:15:18.238Z,100989.00
2023-03-18T13:17:46.902Z,100999.50
2023-03-18T13:20:24.534Z,100990.31
2023-03-18T13:23:16.147Z,100978.59
2023-03-18T13:26:11.989Z,100984.53
2023-03-18T13:29:08.181Z,100984.03
2023-03-18T13:32:17.430Z,100982.34
2023-03-18T13:35:23.052Z,100972.22
2023-03-18T13:38:25.638Z,100972.31
2023-03-18T13:41:40.475Z,100970.88
2023-03-18T13:44:23.629Z,100966.41
2023-03-18T13:47:20.465Z,100967.03
2023-03-18T13:49:49.562Z,100965.31
2023-03-18T13:52:36.372Z,100956.97
2023-03-18T13:55:39.922Z,100967.16
2023-03-18T13:58:36.736Z,100965.56
2023-03-18T14:01:24.358Z,100962.44
2023-03-18T14:04:15.703Z,100953.59
2023-03-18T14:06:53.928Z,100957.84
2023-03-18T14:09:31.727Z,100957.84
2023-03-18T14:12:19.153Z,100942.13
2023-03-18T14:14:56.965Z,100939.56
2023-03-18T14:17:29.060Z,100943.81
2023-03-18T14:19:57.494Z,100935.47
2023-03-18T14:22:35.788Z,100934.13
2023-03-18T14:25:22.766Z,100944.78
2023-03-18T14:27:58.832Z,100939.94
2023-03-18T14:30:30.346Z,100938.97
2023-03-18T14:33:06.140Z,100944.41
2023-03-18T14:36:25.547Z,100939.69
2023-03-18T14:39:03.736Z,100938.97
2023-03-18T14:41:32.862Z,100938.47
2023-03-18T14:44:24.471Z,100930.88
2023-03-18T14:46:58.549Z,100932.16
2023-03-18T14:49:54.896Z,100930.59
2023-03-18T14:52:39.068Z,100926.00
2023-03-18T14:55:31.317Z,100929.16
2023-03-18T14:57:59.986Z,100925.66
2023-03-18T15:00:31.244Z,100927.59
2023-03-18T15:03:09.800Z,100920.56
2023-03-18T15:05:41.121Z,100909.09
2023-03-18T15:08:46.304Z,100916.19
2023-03-18T15:11:16.743Z,100920.81
2023-03-18T15:13:45.243Z,100921.69
2023-03-18T15:16:18.990Z,100904.16
2023-03-18T15:18:53.068Z,100920.06
2023-03-18T15:21:30.807Z,100905.59
2023-03-18T15:24:03.809Z,100914.75
2023-03-18T15:26:40.587Z,100907.50
2023-03-18T15:29:38.759Z,100911.97
2023-03-18T15:32:32.297Z,100904.84
2023-03-18T15:35:28.830Z,100902.66
2023-03-18T15:38:28.241Z,100915.84
2023-03-18T15:41:11.726Z,100908.97
2023-03-18T15:43:45.255Z,100901.47
2023-03-18T15:46:32.632Z,100898.94
2023-03-18T15:49:03.354Z,100898.78
2023-03-18T15:51:45.148Z,100894.06
2023-03-18T15:54:28.773Z,100899.16
2023-03-18T15:56:58.408Z,100897.22
2023-03-18T15:59:31.352Z,100895.91
2023-03-18T16:01:59.912Z,100893.00
2023-03-18T16:04:33.130Z,100887.19
2023-03-18T16:07:01.370Z,100888.84
2023-03-18T16:09:30.370Z,100881.25
2023-03-18T16:12:10.541Z,100890.19
2023-03-18T16:14:42.663Z,100893.00
2023-03-18T16:17:15.951Z,100895.19
2023-03-18T16:19:45.852Z,100909.44
2023-03-18T16:22:14.564Z,100910.41
2023-03-18T16:24:44.152Z,100906.19
2023-03-18T16:27:39.488Z,100913.59
2023-03-18T16:30:26.216Z,100926.16
2023-03-18T16:32:54.775Z,100919.63
2023-03-18T16:35:31.034Z,100920.84
2023-03-18T16:38:00.617Z,100917.09
2023-03-18T16:40:31.524Z,100918.28
2023-03-18T16:42:59.782Z,100927.00
2023-03-18T16:45:32.459Z,100924.44
2023-03-18T16:48:07.000Z,100927.13
2023-03-18T16:50:38.952Z,100928.94
2023-03-18T16:53:24.706Z,100934.25
2023-03-18T16:55:56.296Z,100938.00
2023-03-18T16:58:35.549Z,100936.31
2023-03-18T17:01:07.522Z,100950.59
2023-03-18T17:03:36.272Z,100952.38
2023-03-18T17:06:06.959Z,100954.19
2023-03-18T17:08:36.745Z,100964.97
2023-03-18T17:11:05.642Z,100964.13
2023-03-18T17:13:34.972Z,100976.44
2023-03-18T17:16:04.569Z,100966.06
2023-03-18T17:18:33.393Z,100970.66
2023-03-18T17:21:03.942Z,100966.28
2023-03-18T17:23:32.759Z,100974.25
2023-03-18T17:26:17.063Z,100976.09
2023-03-18T17:28:46.461Z,100983.94
2023-03-18T17:31:15.344Z,100984.66
2023-03-18T17:33:43.750Z,100986.22
2023-03-18T17:36:12.649Z,100980.91
2023-03-18T17:38:41.168Z,100985.41
2023-03-18T17:41:19.519Z,100988.06
2023-03-18T17:43:47.871Z,100987.94
2023-03-18T17:46:16.598Z,101002.31
2023-03-18T17:48:45.688Z,100999.66
2023-03-18T17:51:20.087Z,100997.13
2023-03-18T17:53:50.314Z,100993.84
2023-03-18T17:56:19.557Z,100992.75
2023-03-18T17:58:50.537Z,100999.78
2023-03-18T18:01:27.473Z,100999.78
2023-03-18T18:03:56.529Z,101010.75
2023-03-18T18:06:29.762Z,101003.78
2023-03-18T18:09:02.644Z,101000.59
2023-03-18T18:11:44.286Z,101000.59
2023-03-18T18:14:26.211Z,101009.69
2023-03-18T18:16:59.776Z,101014.03
2023-03-18T18:19:29.057Z,101021.28
2023-03-18T18:21:58.945Z,101028.41
2023-03-18T18:24:30.925Z,101031.19
2023-03-18T18:26:59.736Z,101040.00
2023-03-18T18:29:29.730Z,101038.31
2023-03-18T18:31:58.547Z,101042.91
2023-03-18T18:34:26.905Z,101040.25
2023-03-18T18:36:55.766Z,101059.81
2023-03-18T18:39:24.092Z,101058.13
2023-03-18T18:41:53.100Z,101067.94
2023-03-18T18:44:21.949Z,101070.59
2023-03-18T18:46:50.683Z,101069.72
2023-03-18T18:49:24.411Z,101074.31
2023-03-18T18:51:55.003Z,101071.53
2023-03-18T18:54:26.655Z,101080.50
2023-03-18T18:56:56.228Z,101076.22
2023-03-18T18:59:31.918Z,101084.94
2023-03-18T19:02:03.655Z,101086.88
2023-03-18T19:04:32.113Z,101085.81
2023-03-18T19:07:01.694Z,101088.56
2023-03-18T19:09:30.218Z,101086.88
2023-03-18T19:11:58.859Z,101082.53
2023-03-18T19:14:28.679Z,101080.09
2023-03-18T19:16:59.198Z,101080.09
2023-03-18T19:19:34.585Z,101092.44
2023-03-18T19:22:04.590Z,101091.56
2023-03-18T19:24:36.904Z,101096.88
2023-03-18T19:27:20.169Z,101113.69
2023-03-18T19:29:48.632Z,101107.66
2023-03-18T19:32:19.281Z,101113.69
2023-03-18T19:34:48.781Z,101105.84
2023-03-18T19:37:20.651Z,101103.16
2023-03-18T19:39:49.540Z,101106.91
2023-03-18T19:42:18.879Z,101109.44
2023-03-18T19:44:47.814Z,101113.91
2023-03-18T19:47:28.677Z,101114.91
2023-03-18T19:49:57.085Z,101121.88
2023-03-18T19:52:27.678Z,101117.56
2023-03-18T19:54:56.341Z,101125.75
2023-03-18T19:57:28.316Z,101116.78
2023-03-18T19:59:58.137Z,101119.34
2023-03-18T20:02:31.934Z,101129.66
2023-03-18T20:05:03.051Z,101121.41
2023-03-18T20:07:33.119Z,101115.88
2023-03-18T20:10:01.458Z,101112.97
2023-03-18T20:12:42.622Z,101113.84
2023-03-18T20:15:20.528Z,101114.59
2023-03-18T20:17:50.689Z,101102.97
2023-03-18T20:20:32.739Z,101117.72
2023-03-18T20:23:12.450Z,101122.19
2023-03-18T20:25:43.795Z,101125.06
2023-03-18T20:28:18.117Z,101132.31
2023-03-18T20:30:47.400Z,101126.78
2023-03-18T20:33:16.107Z,101134.75
2023-03-18T20:35:46.958Z,101134.75
2023-03-18T20:38:26.724Z,101131.38
2023-03-18T20:40:55.442Z,101130.41
2023-03-18T20:43:28.276Z,101138.50
2023-03-18T20:45:58.584Z,101142.13
2023-03-18T20:48:28.155Z,101146.69
2023-03-18T20:50:57.598Z,101148.53
2023-03-18T20:53:28.724Z,101138.84
2023-03-18T20:55:57.477Z,101149.63
2023-03-18T20:58:27.772Z,101129.41
2023-03-18T21:00:56.205Z,101123.13
2023-03-18T21:03:29.869Z,101124.09
2023-03-18T21:06:00.438Z,101136.53
2023-03-18T21:08:29.289Z,101140.03
2023-03-18T21:11:01.406Z,101145.34
2023-03-18T21:13:33.022Z,101139.19
2023-03-18T21:16:02.080Z,101136.63
2023-03-18T21:18:30.766Z,101141.97
2023-03-18T21:20:59.103Z,101141.97
2023-03-18T21:23:29.884Z,101149.19
2023-03-18T21:25:58.498Z,101144.72
2023-03-18T21:28:30.230Z,101147.28
2023-03-18T21:30:58.825Z,101145.59
2023-03-18T21:33:34.825Z,101142.94
2023-03-18T21:36:03.327Z,101134.09
2023-03-18T21:38:32.673Z,101139.56
2023-03-18T21:41:01.826Z,101143.88
2023-03-18T21:43:38.528Z,101129.88
2023-03-18T21:46:12.706Z,101134.34
2023-03-18T21:48:41.518Z,101143.03
2023-03-18T21:51:38.435Z,101135.19
2023-03-18T21:54:20.658Z,101130.69
2023-03-18T21:56:48.957Z,101133.50
2023-03-18T21:59:17.766Z,101138.69
2023-03-18T22:01:46.122Z,101134.34
2023-03-18T22:04:14.800Z,101135.28
2023-03-18T22:06:43.213Z,101148.47
2023-03-18T22:09:12.016Z,101142.53
2023-03-18T22:11:40.339Z,101149.44
2023-03-18T22:14:12.783Z,101147.75
2023-03-18T22:16:41.509Z,101144.34
2023-03-18T22:19:10.272Z,101144.34
2023-03-18T22:21:38.530Z,101128.41
2023-03-18T22:24:11.554Z,101131.91
2023-03-18T22:26:40.445Z,101136.38
2023-03-18T22:29:09.139Z,101128.41
2023-03-18T22:31:37.690Z,101117.97
2023-03-18T22:34:22.749Z,101116.06
2023-03-18T22:36:50.989Z,101119.59
2023-03-18T22:39:19.807Z,101116.94
2023-03-18T22:41:48.137Z,101125.84
2023-03-18T22:44:22.368Z,101129.34
2023-03-18T22:46:50.904Z,101143.50
2023-03-18T22:49:19.903Z,101135.63
2023-03-18T22:51:48.101Z,101130.44
2023-03-18T22:54:18.546Z,101133.94
2023-03-18T22:56:46.822Z,101139.25
2023-03-18T22:59:15.538Z,101133.09
2023-03-18T23:01:43.820Z,101132.25
2023-03-18T23:04:12.825Z,101135.75
2023-03-18T23:06:41.847Z,101141.91
2023-03-18T23:09:10.636Z,101136.59
2023-03-18T23:11:39.244Z,101138.41
2023-03-18T23:14:10.705Z,101143.72
2023-03-18T23:16:39.060Z,101138.41
2023-03-18T23:19:07.956Z,101132.25
2023-03-18T23:21:36.321Z,101130.44
2023-03-18T23:24:05.388Z,101134.91
2023-03-18T23:26:33.794Z,101123.31
2023-03-18T23:29:03.104Z,101119.91
2023-03-18T23:31:31.551Z,101129.69
2023-03-18T23:34:00.131Z,101128.97
2023-03-18T23:36:28.835Z,101133.56
2023-03-18T23:38:57.396Z,101144.06
2023-03-18T23:41:25.744Z,101146.84
2023-03-18T23:43:54.338Z,101153.97
2023-03-18T23:46:22.659Z,101148.66
2023-03-18T23:48:51.418Z,101150.59
2023-03-18T23:51:19.658Z,101155.91
2023-03-18T23:53:48.275Z,101144.41
2023-03-18T23:56:17.711Z,101143.56
2023-03-18T23:58:46.715Z,101141.88
